Terminal Aerodrome Forecast
Issued by NWS

Home | Current Version | Previous Version | Text Only | Print | Product List | Glossary On
Versions: 1 2 3 4 5 6 7 8 9 10 11 12 13 14 15 16 17 18 19 20 21 22 23 24 25
000
FTAK31 PANC 111739
TAFAHO
TAF
PAHO 111739Z 1118/1218 VRB06KT P6SM -SHRA SCT035 BKN080
     FM120600 09006KT P6SM VCSH FEW035 BKN100=

USA.gov is the U.S. government's official web portal to all federal, state and local government web resources and services.